Time;durP1;ratioP1;P1;durP2;ratioP2;P2;SDS_P1;SDS_P2;PMS_P1;PMS_P2;Temp;Humidity;BMP_temperature;BMP_pressure;BME280_temperature;BME280_humidity;BME280_pressure;Samples;Min_cycle;Max_cycle;Signal;HPM_P1;HPM_P2
2024/01/19 00:00:53;;;;;;;10.35;2.60;;;;;;;;;;5050484;28;20044;-70
2024/01/19 00:03:19;;;;;;;10.20;2.78;;;;;;;;;;5036944;28;20041;-70
2024/01/19 00:05:45;;;;;;;15.77;2.47;;;;;;;;;;5052281;28;20045;-70
2024/01/19 00:08:11;;;;;;;10.48;2.67;;;;;;;;;;5056285;28;20131;-70
2024/01/19 00:10:37;;;;;;;7.97;2.85;;;;;;;;;;5054029;28;20044;-70
2024/01/19 00:13:03;;;;;;;8.27;2.78;;;;;;;;;;5039581;28;20055;-69
2024/01/19 00:15:29;;;;;;;7.97;2.45;;;;;;;;;;5038274;28;20068;-70
2024/01/19 00:17:55;;;;;;;9.13;2.60;;;;;;;;;;5035934;28;20052;-69
2024/01/19 00:20:21;;;;;;;7.78;2.05;;;;;;;;;;5038560;28;20053;-69
2024/01/19 00:22:47;;;;;;;9.55;2.63;;;;;;;;;;5037530;28;20068;-69
2024/01/19 00:25:13;;;;;;;7.60;2.90;;;;;;;;;;5052975;28;20052;-69
2024/01/19 00:27:39;;;;;;;6.55;2.20;;;;;;;;;;5055820;28;20036;-69
2024/01/19 00:30:05;;;;;;;14.25;2.78;;;;;;;;;;5036455;28;20440;-69
2024/01/19 00:32:31;;;;;;;11.88;2.67;;;;;;;;;;5052775;28;20044;-69
2024/01/19 00:34:57;;;;;;;9.80;2.42;;;;;;;;;;5036677;28;20143;-69
2024/01/19 00:37:23;;;;;;;10.30;2.38;;;;;;;;;;5052867;28;20052;-69
2024/01/19 00:39:49;;;;;;;8.45;2.50;;;;;;;;;;5054902;28;20531;-69
2024/01/19 00:42:15;;;;;;;9.23;2.45;;;;;;;;;;5035154;28;20056;-69
2024/01/19 00:44:41;;;;;;;9.20;2.67;;;;;;;;;;5038989;28;20130;-69
2024/01/19 00:47:07;;;;;;;8.85;2.70;;;;;;;;;;5053699;28;20048;-69
2024/01/19 00:49:34;;;;;;;15.50;2.90;;;;;;;;;;5032749;28;20037;-69
2024/01/19 00:52:00;;;;;;;8.68;2.70;;;;;;;;;;5052592;28;20036;-69
2024/01/19 00:54:26;;;;;;;11.15;2.60;;;;;;;;;;5034896;28;20118;-69
2024/01/19 00:56:52;;;;;;;6.97;2.97;;;;;;;;;;5053775;28;20041;-69
2024/01/19 00:59:18;;;;;;;7.65;2.50;;;;;;;;;;5051840;28;20075;-69
2024/01/19 01:01:44;;;;;;;10.82;2.90;;;;;;;;;;5053439;28;20130;-68
2024/01/19 01:04:10;;;;;;;6.35;2.63;;;;;;;;;;5051944;28;20147;-69
2024/01/19 01:06:36;;;;;;;5.97;2.63;;;;;;;;;;5051516;28;20040;-69
2024/01/19 01:09:03;;;;;;;9.57;2.70;;;;;;;;;;5037418;28;20127;-69
2024/01/19 01:11:29;;;;;;;10.38;2.90;;;;;;;;;;5053082;28;20500;-68
2024/01/19 01:13:56;;;;;;;9.35;2.70;;;;;;;;;;5052520;28;20056;-68
2024/01/19 01:16:22;;;;;;;11.20;2.78;;;;;;;;;;5051957;28;20047;-69
2024/01/19 01:18:48;;;;;;;6.85;2.70;;;;;;;;;;5032931;28;20123;-69
2024/01/19 01:21:14;;;;;;;11.00;3.10;;;;;;;;;;5050713;28;20048;-69
2024/01/19 01:23:40;;;;;;;10.20;3.17;;;;;;;;;;5051363;28;20028;-69
2024/01/19 01:26:06;;;;;;;12.80;3.13;;;;;;;;;;4980731;28;1088080;-70
2024/01/19 01:28:32;;;;;;;9.35;2.80;;;;;;;;;;5036483;28;20083;-70
2024/01/19 01:30:58;;;;;;;7.28;2.50;;;;;;;;;;5052152;28;20123;-69
2024/01/19 01:33:24;;;;;;;16.25;3.13;;;;;;;;;;5052157;28;20554;-69
2024/01/19 01:35:50;;;;;;;10.82;2.90;;;;;;;;;;5036382;28;20048;-70
2024/01/19 01:38:16;;;;;;;15.00;3.50;;;;;;;;;;5037335;28;20059;-70
2024/01/19 01:40:42;;;;;;;6.85;2.70;;;;;;;;;;5051334;28;20048;-69
2024/01/19 01:43:08;;;;;;;7.88;2.72;;;;;;;;;;5052520;28;20645;-70
2024/01/19 01:45:34;;;;;;;7.32;2.47;;;;;;;;;;5035892;28;20044;-69
2024/01/19 01:48:00;;;;;;;10.18;2.60;;;;;;;;;;5053473;28;20044;-69
2024/01/19 01:50:27;;;;;;;8.13;2.72;;;;;;;;;;5051210;28;20041;-69
2024/01/19 01:52:53;;;;;;;8.95;2.97;;;;;;;;;;5035594;28;20051;-69
2024/01/19 01:55:19;;;;;;;8.25;2.85;;;;;;;;;;5050400;28;20045;-69
2024/01/19 01:57:47;;;;;;;6.75;2.50;;;;;;;;;;5053730;28;20045;-69
2024/01/19 02:00:14;;;;;;;13.30;3.20;;;;;;;;;;5051994;28;20512;-70
2024/01/19 02:02:40;;;;;;;7.57;2.58;;;;;;;;;;5035118;28;20044;-70
2024/01/19 02:05:06;;;;;;;10.65;2.60;;;;;;;;;;5035548;28;20076;-70
2024/01/19 02:07:33;;;;;;;10.57;2.83;;;;;;;;;;5035173;28;20040;-70
2024/01/19 02:09:59;;;;;;;10.10;2.97;;;;;;;;;;5035326;28;20064;-70
2024/01/19 02:12:25;;;;;;;7.80;2.63;;;;;;;;;;5035596;28;20102;-70
2024/01/19 02:14:51;;;;;;;7.55;2.78;;;;;;;;;;5035892;28;20127;-70
2024/01/19 02:17:17;;;;;;;9.50;3.38;;;;;;;;;;5052732;28;20044;-70
2024/01/19 02:19:43;;;;;;;12.52;3.20;;;;;;;;;;5034276;28;20486;-70
2024/01/19 02:22:09;;;;;;;9.40;3.00;;;;;;;;;;5035709;28;20046;-70
2024/01/19 02:24:36;;;;;;;9.77;3.22;;;;;;;;;;5051779;28;20997;-70
2024/01/19 02:27:03;;;;;;;9.20;3.28;;;;;;;;;;5033881;28;20043;-70
2024/01/19 02:29:29;;;;;;;9.65;3.40;;;;;;;;;;5052497;28;20051;-70
2024/01/19 02:31:55;;;;;;;10.25;3.30;;;;;;;;;;5035378;28;20096;-70
2024/01/19 02:34:22;;;;;;;10.63;2.95;;;;;;;;;;5052751;28;20049;-70
2024/01/19 02:36:48;;;;;;;10.80;3.50;;;;;;;;;;5034551;28;20151;-70
2024/01/19 02:39:15;;;;;;;9.35;3.20;;;;;;;;;;5035461;28;20091;-70
2024/01/19 02:41:41;;;;;;;6.15;2.95;;;;;;;;;;5032801;28;20127;-70
2024/01/19 02:44:08;;;;;;;9.75;2.95;;;;;;;;;;5035024;28;20051;-70
2024/01/19 02:46:38;;;;;;;13.35;3.33;;;;;;;;;;5035727;28;20134;-71
2024/01/19 02:49:04;;;;;;;11.57;2.95;;;;;;;;;;5052222;28;20045;-70
2024/01/19 02:51:30;;;;;;;9.68;2.10;;;;;;;;;;5034204;28;20045;-70
2024/01/19 02:53:56;;;;;;;10.27;2.10;;;;;;;;;;5051448;28;20040;-70
2024/01/19 02:56:22;;;;;;;10.75;1.92;;;;;;;;;;5051645;28;20041;-70
2024/01/19 02:58:48;;;;;;;7.55;1.50;;;;;;;;;;5050714;28;20032;-70
2024/01/19 03:01:14;;;;;;;8.95;1.92;;;;;;;;;;5035480;28;21071;-70
2024/01/19 03:03:40;;;;;;;8.63;1.60;;;;;;;;;;5050488;28;20138;-70
2024/01/19 03:06:06;;;;;;;8.70;1.45;;;;;;;;;;5036451;28;20040;-70
2024/01/19 03:08:32;;;;;;;4.35;1.23;;;;;;;;;;5033700;28;20055;-70
2024/01/19 03:10:58;;;;;;;10.85;1.55;;;;;;;;;;5052238;28;20048;-70
2024/01/19 03:13:24;;;;;;;9.93;1.80;;;;;;;;;;5034535;28;20040;-70
2024/01/19 03:15:50;;;;;;;8.23;1.30;;;;;;;;;;5047879;28;20105;-70
2024/01/19 03:18:16;;;;;;;7.63;1.63;;;;;;;;;;5036128;28;20036;-70
2024/01/19 03:20:42;;;;;;;4.80;1.30;;;;;;;;;;5050217;28;20079;-70
2024/01/19 03:23:08;;;;;;;6.25;1.50;;;;;;;;;;5052143;28;20788;-70
2024/01/19 03:25:35;;;;;;;9.80;1.52;;;;;;;;;;5035259;28;20063;-72
2024/01/19 03:28:01;;;;;;;6.38;1.58;;;;;;;;;;5051964;28;20072;-71
2024/01/19 03:30:27;;;;;;;8.52;1.50;;;;;;;;;;5035275;28;20040;-71
2024/01/19 03:32:53;;;;;;;7.82;1.30;;;;;;;;;;5035413;28;20045;-71
2024/01/19 03:35:19;;;;;;;7.38;1.45;;;;;;;;;;5050019;28;20064;-71
2024/01/19 03:37:45;;;;;;;5.05;1.17;;;;;;;;;;5051671;28;20044;-72
2024/01/19 03:40:11;;;;;;;7.43;1.30;;;;;;;;;;5036996;28;20105;-71
2024/01/19 03:42:37;;;;;;;3.83;1.33;;;;;;;;;;5054307;28;20069;-71
2024/01/19 03:45:04;;;;;;;6.40;1.30;;;;;;;;;;5052865;28;20073;-71
2024/01/19 03:47:30;;;;;;;7.13;1.23;;;;;;;;;;5038608;28;20076;-71
2024/01/19 03:49:56;;;;;;;4.43;1.60;;;;;;;;;;5057966;28;20047;-71
2024/01/19 03:52:23;;;;;;;4.38;1.17;;;;;;;;;;5057283;28;20048;-71
2024/01/19 03:54:49;;;;;;;4.50;1.23;;;;;;;;;;5057189;28;20040;-72
2024/01/19 03:57:15;;;;;;;5.20;1.15;;;;;;;;;;5039454;28;20048;-72
2024/01/19 03:59:41;;;;;;;8.00;1.38;;;;;;;;;;5055999;28;20701;-71
2024/01/19 04:02:07;;;;;;;4.78;1.30;;;;;;;;;;5056628;28;20048;-71
2024/01/19 04:04:33;;;;;;;5.07;1.17;;;;;;;;;;5058542;28;20040;-71
2024/01/19 04:07:00;;;;;;;5.97;1.40;;;;;;;;;;5055045;28;20044;-71
2024/01/19 04:09:26;;;;;;;6.40;1.15;;;;;;;;;;5038452;28;20049;-71
2024/01/19 04:11:52;;;;;;;7.07;1.33;;;;;;;;;;5040969;28;20366;-71
2024/01/19 04:14:18;;;;;;;5.22;1.35;;;;;;;;;;5054068;28;20044;-71
2024/01/19 04:16:44;;;;;;;6.15;1.35;;;;;;;;;;5037734;28;20041;-71
2024/01/19 04:19:10;;;;;;;2.47;0.93;;;;;;;;;;5055955;28;20087;-71
2024/01/19 04:21:36;;;;;;;4.03;1.25;;;;;;;;;;5057015;28;20421;-71
2024/01/19 04:24:02;;;;;;;5.60;1.10;;;;;;;;;;5040412;28;20040;-71
2024/01/19 04:26:28;;;;;;;7.18;1.17;;;;;;;;;;5037596;28;20043;-71
2024/01/19 04:28:54;;;;;;;8.48;1.30;;;;;;;;;;5038421;28;20040;-71
2024/01/19 04:31:20;;;;;;;5.22;1.33;;;;;;;;;;5054905;28;20043;-71
2024/01/19 04:33:46;;;;;;;5.60;1.27;;;;;;;;;;5040052;28;20125;-71
2024/01/19 04:36:12;;;;;;;7.13;1.42;;;;;;;;;;5054259;28;20048;-71
2024/01/19 04:38:38;;;;;;;4.13;1.10;;;;;;;;;;5038123;28;20055;-71
2024/01/19 04:41:05;;;;;;;6.22;1.17;;;;;;;;;;5038114;28;20416;-71
2024/01/19 04:43:31;;;;;;;5.63;1.40;;;;;;;;;;5036618;28;20064;-71
2024/01/19 04:45:58;;;;;;;6.95;1.20;;;;;;;;;;5038465;28;20048;-71
2024/01/19 04:48:27;;;;;;;5.63;1.30;;;;;;;;;;5035864;28;20033;-71
2024/01/19 04:50:53;;;;;;;7.82;1.45;;;;;;;;;;5040892;28;20127;-71
2024/01/19 04:53:19;;;;;;;8.18;1.52;;;;;;;;;;5057415;28;20143;-71
2024/01/19 04:55:45;;;;;;;7.30;1.33;;;;;;;;;;5040563;28;20067;-71
2024/01/19 04:58:11;;;;;;;5.55;1.40;;;;;;;;;;5037156;28;20490;-71
2024/01/19 05:00:37;;;;;;;6.50;1.60;;;;;;;;;;5037586;28;20048;-71
2024/01/19 05:03:03;;;;;;;5.10;1.77;;;;;;;;;;5037346;28;20060;-71
2024/01/19 05:05:29;;;;;;;10.23;2.22;;;;;;;;;;5040055;28;20045;-71
2024/01/19 05:07:55;;;;;;;7.88;1.80;;;;;;;;;;5040855;28;20059;-71
2024/01/19 05:10:21;;;;;;;8.25;1.80;;;;;;;;;;5038997;28;20102;-71
2024/01/19 05:12:47;;;;;;;9.10;2.20;;;;;;;;;;5037183;28;20174;-71
2024/01/19 05:15:13;;;;;;;6.95;1.95;;;;;;;;;;5036452;28;20048;-71
2024/01/19 05:17:39;;;;;;;6.13;1.70;;;;;;;;;;5052458;28;20172;-70
2024/01/19 05:20:05;;;;;;;8.50;2.03;;;;;;;;;;5036397;28;20170;-70
2024/01/19 05:22:31;;;;;;;6.95;1.90;;;;;;;;;;5037406;28;20496;-70
2024/01/19 05:24:58;;;;;;;8.05;2.17;;;;;;;;;;5053011;28;20047;-70
2024/01/19 05:27:24;;;;;;;8.45;1.90;;;;;;;;;;5052552;28;20048;-70
2024/01/19 05:29:50;;;;;;;9.93;2.03;;;;;;;;;;5036089;28;20512;-70
2024/01/19 05:32:16;;;;;;;6.00;2.00;;;;;;;;;;5033544;28;20049;-70
2024/01/19 05:34:43;;;;;;;4.40;1.73;;;;;;;;;;5037181;28;20051;-70
2024/01/19 05:37:09;;;;;;;6.05;1.70;;;;;;;;;;5055450;28;20072;-70
2024/01/19 05:39:35;;;;;;;5.22;1.75;;;;;;;;;;5055424;28;20072;-70
2024/01/19 05:42:02;;;;;;;6.50;1.98;;;;;;;;;;5055045;28;20044;-70
2024/01/19 05:44:28;;;;;;;10.27;1.95;;;;;;;;;;5056537;28;20052;-70
2024/01/19 05:46:54;;;;;;;6.43;1.75;;;;;;;;;;5038923;28;20040;-70
2024/01/19 05:49:20;;;;;;;8.63;1.60;;;;;;;;;;5054700;28;20405;-70
2024/01/19 05:51:46;;;;;;;5.43;1.60;;;;;;;;;;5040596;28;20039;-70
2024/01/19 05:54:12;;;;;;;10.70;1.83;;;;;;;;;;5037937;28;20041;-70
2024/01/19 05:56:38;;;;;;;7.45;2.00;;;;;;;;;;5054075;28;20068;-70
2024/01/19 05:59:04;;;;;;;9.82;1.70;;;;;;;;;;5040112;28;20129;-70
2024/01/19 06:01:30;;;;;;;9.90;1.80;;;;;;;;;;5054553;28;20058;-71
2024/01/19 06:03:58;;;;;;;9.10;1.80;;;;;;;;;;5039223;28;20071;-70
2024/01/19 06:06:25;;;;;;;7.72;1.63;;;;;;;;;;5038365;28;20064;-70
2024/01/19 06:08:51;;;;;;;9.00;2.15;;;;;;;;;;5040198;28;20036;-71
2024/01/19 06:11:17;;;;;;;10.88;2.00;;;;;;;;;;5035252;28;20119;-70
2024/01/19 06:13:45;;;;;;;8.43;2.00;;;;;;;;;;5035638;28;20102;-71
2024/01/19 06:16:11;;;;;;;5.20;1.80;;;;;;;;;;5034277;28;20055;-70
2024/01/19 06:18:37;;;;;;;9.98;1.73;;;;;;;;;;5034222;28;20048;-71
2024/01/19 06:21:03;;;;;;;8.27;1.58;;;;;;;;;;5051844;28;20067;-70
2024/01/19 06:23:29;;;;;;;8.80;1.75;;;;;;;;;;5029696;28;20519;-70
2024/01/19 06:25:55;;;;;;;9.38;1.60;;;;;;;;;;5033653;28;20114;-71
2024/01/19 06:28:21;;;;;;;5.95;1.40;;;;;;;;;;5050520;28;20040;-71
2024/01/19 06:30:47;;;;;;;11.30;1.55;;;;;;;;;;5033744;28;20041;-70
2024/01/19 06:33:13;;;;;;;6.90;1.40;;;;;;;;;;5035411;28;20058;-71
2024/01/19 06:35:39;;;;;;;6.32;1.38;;;;;;;;;;5032532;28;20044;-70
2024/01/19 06:38:05;;;;;;;8.32;1.92;;;;;;;;;;5034974;28;20107;-71
2024/01/19 06:40:32;;;;;;;6.57;1.50;;;;;;;;;;5034476;28;20055;-71
2024/01/19 06:42:58;;;;;;;7.32;1.42;;;;;;;;;;5033825;28;20592;-71
2024/01/19 06:45:24;;;;;;;10.77;1.60;;;;;;;;;;5035061;28;20052;-71
2024/01/19 06:47:50;;;;;;;7.82;1.20;;;;;;;;;;5033228;28;20060;-71
2024/01/19 06:50:16;;;;;;;9.35;1.50;;;;;;;;;;5034243;28;20048;-71
2024/01/19 06:52:42;;;;;;;7.80;1.33;;;;;;;;;;5050217;28;20103;-71
2024/01/19 06:55:08;;;;;;;9.38;1.40;;;;;;;;;;5033748;28;20056;-71
2024/01/19 06:57:34;;;;;;;9.30;1.13;;;;;;;;;;5050639;28;20051;-70
2024/01/19 07:00:00;;;;;;;6.68;1.52;;;;;;;;;;5050932;28;20044;-71
2024/01/19 07:02:26;;;;;;;7.10;1.40;;;;;;;;;;5048855;28;21266;-70
2024/01/19 07:04:52;;;;;;;8.35;1.30;;;;;;;;;;5034481;28;20044;-70
2024/01/19 07:07:18;;;;;;;4.88;1.33;;;;;;;;;;5032928;28;22786;-71
2024/01/19 07:09:44;;;;;;;7.57;1.80;;;;;;;;;;5034045;28;20056;-70
2024/01/19 07:12:11;;;;;;;7.53;1.77;;;;;;;;;;5034638;28;20032;-71
2024/01/19 07:14:38;;;;;;;10.52;1.77;;;;;;;;;;5018495;28;20044;-71
2024/01/19 07:17:04;;;;;;;6.20;1.73;;;;;;;;;;5049148;28;20052;-70
2024/01/19 07:19:30;;;;;;;10.88;2.33;;;;;;;;;;5050052;28;20128;-71
2024/01/19 07:21:56;;;;;;;6.28;1.58;;;;;;;;;;5050638;28;20067;-71
2024/01/19 07:24:22;;;;;;;5.80;1.90;;;;;;;;;;5032622;28;20147;-69
2024/01/19 07:26:49;;;;;;;6.93;1.70;;;;;;;;;;5050098;28;20036;-69
2024/01/19 07:29:15;;;;;;;8.25;1.60;;;;;;;;;;5036000;28;20045;-69
2024/01/19 07:31:41;;;;;;;10.23;1.70;;;;;;;;;;5050415;28;20666;-70
2024/01/19 07:34:07;;;;;;;12.05;2.40;;;;;;;;;;5048795;28;20049;-70
2024/01/19 07:36:33;;;;;;;5.82;1.98;;;;;;;;;;5035517;28;20048;-70
2024/01/19 07:38:59;;;;;;;4.82;1.63;;;;;;;;;;5051473;28;20040;-70
2024/01/19 07:41:25;;;;;;;9.00;1.67;;;;;;;;;;5035045;28;20421;-70
2024/01/19 07:43:51;;;;;;;7.60;1.42;;;;;;;;;;5044863;28;20037;-70
2024/01/19 07:46:17;;;;;;;8.00;1.60;;;;;;;;;;5049447;28;22901;-70
2024/01/19 07:48:44;;;;;;;6.55;1.60;;;;;;;;;;5035441;28;20066;-70
2024/01/19 07:51:10;;;;;;;9.35;2.15;;;;;;;;;;5051370;28;20493;-70
2024/01/19 07:53:36;;;;;;;10.05;1.92;;;;;;;;;;5050667;28;20805;-70
2024/01/19 07:56:02;;;;;;;7.28;1.50;;;;;;;;;;5049117;28;20144;-71
2024/01/19 07:58:28;;;;;;;8.80;1.60;;;;;;;;;;5035867;28;20052;-70
2024/01/19 08:00:54;;;;;;;28.92;4.70;;;;;;;;;;5049371;28;20047;-70
2024/01/19 08:03:21;;;;;;;6.70;1.92;;;;;;;;;;5050837;28;20059;-70
2024/01/19 08:05:47;;;;;;;11.90;1.88;;;;;;;;;;5050109;28;20484;-71
2024/01/19 08:08:13;;;;;;;9.90;1.67;;;;;;;;;;5050529;28;20046;-70
2024/01/19 08:10:39;;;;;;;6.35;1.95;;;;;;;;;;5035970;28;20190;-71
2024/01/19 08:13:05;;;;;;;8.80;1.80;;;;;;;;;;5033377;28;20052;-71
2024/01/19 08:15:31;;;;;;;6.32;2.05;;;;;;;;;;5051607;28;20045;-70
2024/01/19 08:17:57;;;;;;;8.23;2.22;;;;;;;;;;5050598;28;20102;-71
2024/01/19 08:20:24;;;;;;;8.30;2.10;;;;;;;;;;5033876;28;20040;-71
2024/01/19 08:22:52;;;;;;;6.40;1.98;;;;;;;;;;5050160;28;20652;-71
2024/01/19 08:25:19;;;;;;;7.38;2.03;;;;;;;;;;5050913;28;20049;-71
2024/01/19 08:27:46;;;;;;;4.50;2.20;;;;;;;;;;5041067;28;20062;-70
2024/01/19 08:30:12;;;;;;;11.82;2.65;;;;;;;;;;5040377;28;20123;-70
2024/01/19 08:32:38;;;;;;;5.60;2.30;;;;;;;;;;5052202;28;20060;-70
2024/01/19 08:35:08;;;;;;;7.50;2.15;;;;;;;;;;5037860;28;20052;-70
2024/01/19 08:37:38;;;;;;;8.35;2.17;;;;;;;;;;5053155;28;20055;-71
2024/01/19 08:40:13;;;;;;;6.95;2.03;;;;;;;;;;5039083;28;20048;-70
2024/01/19 08:42:39;;;;;;;9.93;2.42;;;;;;;;;;5038947;28;20052;-70
2024/01/19 08:45:06;;;;;;;12.25;2.30;;;;;;;;;;5038084;28;20044;-71
2024/01/19 08:47:32;;;;;;;7.10;2.00;;;;;;;;;;5037100;28;20037;-70
2024/01/19 08:50:02;;;;;;;7.30;1.80;;;;;;;;;;5054588;28;20045;-70
2024/01/19 08:52:32;;;;;;;10.82;2.70;;;;;;;;;;5052802;28;20037;-70
2024/01/19 08:54:58;;;;;;;7.45;2.10;;;;;;;;;;5038077;28;20040;-70
2024/01/19 08:57:24;;;;;;;9.30;1.88;;;;;;;;;;5037125;28;20511;-71
2024/01/19 08:59:52;;;;;;;6.68;2.10;;;;;;;;;;5039012;28;20980;-71
2024/01/19 09:02:18;;;;;;;13.30;2.28;;;;;;;;;;5053250;28;20041;-71
2024/01/19 09:04:44;;;;;;;7.93;2.08;;;;;;;;;;5054427;28;20067;-70
2024/01/19 09:07:10;;;;;;;9.05;3.10;;;;;;;;;;5036117;28;20051;-71
2024/01/19 09:09:37;;;;;;;7.68;2.25;;;;;;;;;;5054807;28;20055;-70
2024/01/19 09:12:03;;;;;;;8.85;2.60;;;;;;;;;;5032989;28;20352;-70
2024/01/19 09:14:29;;;;;;;13.00;2.60;;;;;;;;;;5038685;28;20630;-70
2024/01/19 09:16:55;;;;;;;8.48;2.20;;;;;;;;;;5037064;28;20044;-70
2024/01/19 09:19:21;;;;;;;9.60;2.53;;;;;;;;;;5037605;28;20094;-70
2024/01/19 09:21:50;;;;;;;13.13;2.83;;;;;;;;;;5037461;28;20045;-70
2024/01/19 09:24:16;;;;;;;8.70;3.67;;;;;;;;;;5037040;28;20076;-70
2024/01/19 09:26:42;;;;;;;11.00;3.03;;;;;;;;;;5037046;28;20139;-70
2024/01/19 09:29:09;;;;;;;10.43;3.20;;;;;;;;;;5037684;28;20060;-70
2024/01/19 09:31:46;;;;;;;8.43;3.05;;;;;;;;;;5052438;28;20048;-70
2024/01/19 09:34:12;;;;;;;12.68;2.70;;;;;;;;;;5037008;28;20216;-70
2024/01/19 09:36:39;;;;;;;9.27;2.72;;;;;;;;;;5033984;28;20052;-70
2024/01/19 09:39:06;;;;;;;10.70;2.60;;;;;;;;;;5034643;28;20218;-70
2024/01/19 09:41:34;;;;;;;6.35;2.38;;;;;;;;;;5050443;28;20040;-70
2024/01/19 09:44:02;;;;;;;6.53;2.97;;;;;;;;;;5037368;28;20059;-70
2024/01/19 09:46:29;;;;;;;8.88;2.67;;;;;;;;;;5036475;28;20212;-70
2024/01/19 09:48:55;;;;;;;10.57;3.17;;;;;;;;;;5051075;28;20049;-70
2024/01/19 09:51:22;;;;;;;10.98;3.05;;;;;;;;;;5034448;28;20037;-70
2024/01/19 09:53:53;;;;;;;8.27;3.13;;;;;;;;;;5031620;28;20044;-69
2024/01/19 09:56:19;;;;;;;13.38;3.17;;;;;;;;;;5052117;28;20490;-70
2024/01/19 09:58:46;;;;;;;9.40;2.80;;;;;;;;;;5035169;28;20673;-69
2024/01/19 10:01:12;;;;;;;10.88;3.22;;;;;;;;;;5036027;28;20045;-69
2024/01/19 10:03:38;;;;;;;11.25;3.40;;;;;;;;;;5036358;28;20182;-69
2024/01/19 10:06:04;;;;;;;8.75;3.45;;;;;;;;;;5033588;28;20200;-69
2024/01/19 10:08:30;;;;;;;11.70;3.67;;;;;;;;;;5035199;28;20044;-69
2024/01/19 10:10:57;;;;;;;7.90;3.35;;;;;;;;;;5018059;28;20117;-69
2024/01/19 10:13:23;;;;;;;10.18;3.22;;;;;;;;;;5037678;28;20048;-70
2024/01/19 10:15:49;;;;;;;10.45;3.50;;;;;;;;;;5052074;28;20048;-70
2024/01/19 10:18:16;;;;;;;13.25;3.88;;;;;;;;;;5053068;28;20040;-74
2024/01/19 10:20:43;;;;;;;8.13;3.30;;;;;;;;;;5058998;28;20057;-76
2024/01/19 10:23:19;;;;;;;13.43;3.10;;;;;;;;;;5043898;28;20566;-76
2024/01/19 10:25:45;;;;;;;12.50;3.28;;;;;;;;;;5045806;28;20060;-77
2024/01/19 10:28:28;;;;;;;8.32;3.33;;;;;;;;;;5041287;28;21193;-75
2024/01/19 10:30:54;;;;;;;8.68;3.10;;;;;;;;;;5039387;28;20458;-76
2024/01/19 10:33:20;;;;;;;10.20;3.10;;;;;;;;;;5038455;28;20054;-76
2024/01/19 10:35:46;;;;;;;9.68;3.20;;;;;;;;;;5039651;28;20669;-75
2024/01/19 10:38:12;;;;;;;14.02;3.10;;;;;;;;;;5054916;28;20053;-76
2024/01/19 10:40:38;;;;;;;11.02;3.03;;;;;;;;;;5020770;28;20044;-76
2024/01/19 10:43:04;;;;;;;14.52;3.45;;;;;;;;;;5036461;28;20052;-75
2024/01/19 10:45:34;;;;;;;14.55;4.78;;;;;;;;;;5036300;28;20040;-74
2024/01/19 10:48:03;;;;;;;12.50;4.97;;;;;;;;;;5055908;28;20037;-77
2024/01/19 10:50:29;;;;;;;13.95;4.47;;;;;;;;;;5056043;28;20048;-74
2024/01/19 10:52:57;;;;;;;11.18;4.03;;;;;;;;;;5038026;28;20044;-74
2024/01/19 10:55:32;;;;;;;13.80;4.57;;;;;;;;;;5053004;28;20048;-75
2024/01/19 10:58:04;;;;;;;15.05;4.57;;;;;;;;;;5039346;28;20052;-75
2024/01/19 11:00:31;;;;;;;16.52;4.53;;;;;;;;;;5040416;28;20882;-74
2024/01/19 11:02:58;;;;;;;12.52;4.32;;;;;;;;;;5023316;28;20048;-75
2024/01/19 11:05:25;;;;;;;16.38;5.38;;;;;;;;;;5059168;28;20123;-75
2024/01/19 11:07:52;;;;;;;13.88;5.22;;;;;;;;;;5039995;28;20036;-75
2024/01/19 11:10:19;;;;;;;12.27;4.25;;;;;;;;;;5041099;28;20055;-75
2024/01/19 11:12:55;;;;;;;12.82;3.65;;;;;;;;;;5059614;28;20076;-75
2024/01/19 11:15:29;;;;;;;8.70;2.90;;;;;;;;;;5043827;28;20045;-75
2024/01/19 11:17:57;;;;;;;12.88;3.67;;;;;;;;;;5059352;28;20063;-75
2024/01/19 11:20:24;;;;;;;9.35;2.83;;;;;;;;;;5056334;28;20036;-76
2024/01/19 11:22:51;;;;;;;9.35;2.90;;;;;;;;;;5038495;28;20809;-76
2024/01/19 11:25:19;;;;;;;8.27;2.80;;;;;;;;;;5051836;28;20045;-75
2024/01/19 11:27:52;;;;;;;12.75;3.05;;;;;;;;;;5039930;28;20044;-75
2024/01/19 11:30:23;;;;;;;8.30;2.90;;;;;;;;;;5052680;28;20048;-74
2024/01/19 11:32:50;;;;;;;8.90;2.78;;;;;;;;;;5051089;28;20040;-75
2024/01/19 11:35:36;;;;;;;8.25;2.67;;;;;;;;;;5053471;28;20068;-74
2024/01/19 11:38:02;;;;;;;10.77;2.75;;;;;;;;;;5034600;28;20127;-74
2024/01/19 11:40:29;;;;;;;8.65;2.72;;;;;;;;;;5034925;28;20053;-74
2024/01/19 11:42:55;;;;;;;9.40;2.97;;;;;;;;;;5053900;28;20047;-74
2024/01/19 11:45:27;;;;;;;7.88;2.80;;;;;;;;;;5053974;28;20417;-75
2024/01/19 11:47:54;;;;;;;8.60;2.50;;;;;;;;;;5053642;28;20040;-75
2024/01/19 11:50:39;;;;;;;14.73;3.60;;;;;;;;;;5053479;28;20510;-75
2024/01/19 11:53:05;;;;;;;11.20;2.85;;;;;;;;;;5040961;28;20044;-76
2024/01/19 11:55:31;;;;;;;9.77;3.00;;;;;;;;;;5041209;28;20037;-77
2024/01/19 11:58:17;;;;;;;12.07;3.10;;;;;;;;;;5040136;28;20127;-77
2024/01/19 12:00:43;;;;;;;8.90;3.47;;;;;;;;;;5042181;28;20484;-77
2024/01/19 12:03:10;;;;;;;13.13;2.97;;;;;;;;;;5047837;28;20071;-78
2024/01/19 12:05:37;;;;;;;14.70;2.97;;;;;;;;;;5047443;28;20524;-79
2024/01/19 12:08:03;;;;;;;10.00;2.72;;;;;;;;;;5063677;28;20044;-77
2024/01/19 12:10:29;;;;;;;8.80;2.35;;;;;;;;;;5047522;28;20087;-77
2024/01/19 12:12:55;;;;;;;11.32;3.05;;;;;;;;;;5045261;28;20072;-77
2024/01/19 12:15:21;;;;;;;12.75;2.97;;;;;;;;;;5064859;28;20131;-77
2024/01/19 12:17:47;;;;;;;11.75;3.20;;;;;;;;;;5064242;28;20076;-76
2024/01/19 12:20:17;;;;;;;12.00;2.92;;;;;;;;;;5042624;28;20052;-75
2024/01/19 12:22:45;;;;;;;13.88;3.38;;;;;;;;;;5056318;28;20048;-76
2024/01/19 12:25:15;;;;;;;10.75;3.05;;;;;;;;;;5042410;28;20040;-76
2024/01/19 12:27:41;;;;;;;9.32;3.08;;;;;;;;;;5056596;28;20041;-76
2024/01/19 12:30:20;;;;;;;12.02;3.33;;;;;;;;;;5044376;28;20036;-76
2024/01/19 12:32:47;;;;;;;9.68;2.90;;;;;;;;;;5061984;28;20044;-75
2024/01/19 12:35:13;;;;;;;12.13;2.90;;;;;;;;;;5042812;28;20045;-75
2024/01/19 12:37:39;;;;;;;10.90;2.80;;;;;;;;;;5059838;28;20036;-79
2024/01/19 12:40:15;;;;;;;11.13;2.70;;;;;;;;;;5039676;28;20032;-75
2024/01/19 12:42:41;;;;;;;12.02;3.00;;;;;;;;;;5059626;28;20534;-76
2024/01/19 12:45:08;;;;;;;12.05;3.20;;;;;;;;;;5042939;28;20432;-75
2024/01/19 12:47:34;;;;;;;10.45;2.75;;;;;;;;;;5043320;28;20144;-75
2024/01/19 12:50:00;;;;;;;8.63;2.60;;;;;;;;;;5042748;28;20058;-75
2024/01/19 12:52:26;;;;;;;15.15;3.28;;;;;;;;;;5042230;28;20040;-75
2024/01/19 12:54:52;;;;;;;9.35;2.50;;;;;;;;;;5040460;28;20045;-75
2024/01/19 12:57:18;;;;;;;8.20;2.20;;;;;;;;;;5055902;28;20048;-75
2024/01/19 12:59:45;;;;;;;13.95;2.53;;;;;;;;;;5042178;28;20390;-74
2024/01/19 13:02:11;;;;;;;14.13;2.83;;;;;;;;;;5038474;28;20048;-74
2024/01/19 13:04:37;;;;;;;8.38;1.92;;;;;;;;;;5053910;28;20471;-74
2024/01/19 13:07:04;;;;;;;10.60;2.72;;;;;;;;;;5055009;28;20143;-74
2024/01/19 13:09:30;;;;;;;7.97;1.80;;;;;;;;;;5036453;28;20412;-74
2024/01/19 13:12:12;;;;;;;6.82;2.25;;;;;;;;;;5036400;28;20102;-74
2024/01/19 13:14:38;;;;;;;9.77;2.75;;;;;;;;;;5053070;28;20076;-74
2024/01/19 13:17:05;;;;;;;9.57;1.92;;;;;;;;;;5052792;28;20040;-74
2024/01/19 13:19:31;;;;;;;16.15;2.60;;;;;;;;;;5053304;28;20094;-73
2024/01/19 13:21:57;;;;;;;9.10;2.30;;;;;;;;;;5038233;28;20037;-74
2024/01/19 13:24:24;;;;;;;10.85;2.30;;;;;;;;;;5052870;28;20045;-73
2024/01/19 13:27:02;;;;;;;9.10;2.60;;;;;;;;;;5051794;28;20559;-73
2024/01/19 13:29:29;;;;;;;9.40;2.65;;;;;;;;;;5035261;28;20056;-73
2024/01/19 13:31:56;;;;;;;10.95;2.40;;;;;;;;;;5048384;28;20098;-74
2024/01/19 13:34:27;;;;;;;10.32;2.75;;;;;;;;;;5035230;28;20048;-74
2024/01/19 13:36:53;;;;;;;12.48;2.95;;;;;;;;;;5047662;28;21008;-72
2024/01/19 13:39:19;;;;;;;11.73;2.40;;;;;;;;;;5028185;28;20040;-71
2024/01/19 13:41:45;;;;;;;12.50;2.33;;;;;;;;;;5047166;28;20048;-71
2024/01/19 13:44:11;;;;;;;13.05;2.65;;;;;;;;;;5048063;28;20049;-72
2024/01/19 13:46:37;;;;;;;10.35;2.40;;;;;;;;;;5032314;28;20044;-71
2024/01/19 13:49:03;;;;;;;7.47;1.92;;;;;;;;;;5048096;28;20068;-72
2024/01/19 13:51:29;;;;;;;13.48;1.92;;;;;;;;;;5031392;28;20083;-72
2024/01/19 13:53:55;;;;;;;4.55;1.45;;;;;;;;;;5046532;28;20049;-73
2024/01/19 13:56:21;;;;;;;9.80;2.22;;;;;;;;;;5029680;28;20056;-73
2024/01/19 13:58:47;;;;;;;9.15;1.80;;;;;;;;;;5033139;28;20690;-72
2024/01/19 14:01:13;;;;;;;8.30;1.90;;;;;;;;;;5030977;28;21019;-72
2024/01/19 14:03:39;;;;;;;10.68;2.05;;;;;;;;;;5048489;28;20041;-72
2024/01/19 14:06:06;;;;;;;6.78;1.95;;;;;;;;;;5032302;28;20132;-72
2024/01/19 14:08:33;;;;;;;7.75;2.05;;;;;;;;;;5048388;28;20513;-72
2024/01/19 14:10:59;;;;;;;10.40;2.17;;;;;;;;;;5046675;28;20067;-72
2024/01/19 14:13:25;;;;;;;10.10;2.13;;;;;;;;;;5036186;28;20392;-71
2024/01/19 14:15:51;;;;;;;10.98;2.13;;;;;;;;;;5037424;28;20051;-72
2024/01/19 14:18:18;;;;;;;12.00;2.85;;;;;;;;;;5035248;28;20589;-71
2024/01/19 14:20:45;;;;;;;10.95;3.03;;;;;;;;;;5032199;28;20048;-72
2024/01/19 14:23:11;;;;;;;10.80;2.92;;;;;;;;;;5033452;28;20052;-73
2024/01/19 14:25:37;;;;;;;10.75;2.72;;;;;;;;;;5030866;28;20091;-73
2024/01/19 14:28:03;;;;;;;9.65;2.70;;;;;;;;;;5049508;28;20049;-73
2024/01/19 14:30:29;;;;;;;9.55;2.92;;;;;;;;;;5048625;28;20040;-73
2024/01/19 14:32:56;;;;;;;11.77;2.80;;;;;;;;;;5032640;28;20083;-73
2024/01/19 14:35:22;;;;;;;9.23;2.85;;;;;;;;;;5048228;28;20044;-72